Map

Track Data

SID SEASON NUMBER BASIN SUBBASIN NAME ISO_TIME NATURE LAT LON WMO_WIND WMO_PRES WMO_AGENCY TRACK_TYPE DIST2LAND LANDFALL IFLAG USA_AGENCY USA_ATCF_ID USA_LAT USA_LON USA_RECORD USA_STATUS USA_WIND USA_PRES USA_SSHS USA_R34_NE USA_R34_SE USA_R34_SW USA_R34_NW USA_R50_NE USA_R50_SE USA_R50_SW USA_R50_NW USA_R64_NE USA_R64_SE USA_R64_SW USA_R64_NW USA_POCI USA_ROCI USA_RMW USA_EYE TOKYO_LAT TOKYO_LON TOKYO_GRADE TOKYO_WIND TOKYO_PRES TOKYO_R50_DIR TOKYO_R50_LONG TOKYO_R50_SHORT TOKYO_R30_DIR TOKYO_R30_LONG TOKYO_R30_SHORT TOKYO_LAND CMA_LAT CMA_LON CMA_CAT CMA_WIND CMA_PRES HKO_LAT HKO_LON HKO_CAT HKO_WIND HKO_PRES NEWDELHI_LAT NEWDELHI_LON NEWDELHI_GRADE NEWDELHI_WIND NEWDELHI_PRES NEWDELHI_CI NEWDELHI_DP NEWDELHI_POCI REUNION_LAT REUNION_LON REUNION_TYPE REUNION_WIND REUNION_PRES REUNION_TNUM REUNION_CI REUNION_RMW REUNION_R34_NE REUNION_R34_SE REUNION_R34_SW REUNION_R34_NW REUNION_R50_NE REUNION_R50_SE REUNION_R50_SW REUNION_R50_NW REUNION_R64_NE REUNION_R64_SE REUNION_R64_SW REUNION_R64_NW BOM_LAT BOM_LON BOM_TYPE BOM_WIND BOM_PRES BOM_TNUM BOM_CI BOM_RMW BOM_R34_NE BOM_R34_SE BOM_R34_SW BOM_R34_NW BOM_R50_NE BOM_R50_SE BOM_R50_SW BOM_R50_NW BOM_R64_NE BOM_R64_SE BOM_R64_SW BOM_R64_NW BOM_ROCI BOM_POCI BOM_EYE BOM_POS_METHOD BOM_PRES_METHOD NADI_LAT NADI_LON NADI_CAT NADI_WIND NADI_PRES WELLINGTON_LAT WELLINGTON_LON WELLINGTON_WIND WELLINGTON_PRES DS824_LAT DS824_LON DS824_STAGE DS824_WIND DS824_PRES TD9636_LAT TD9636_LON TD9636_STAGE TD9636_WIND TD9636_PRES TD9635_LAT TD9635_LON TD9635_WIND TD9635_PRES TD9635_ROCI NEUMANN_LAT NEUMANN_LON NEUMANN_CLASS NEUMANN_WIND NEUMANN_PRES MLC_LAT MLC_LON MLC_CLASS MLC_WIND MLC_PRES USA_GUST BOM_GUST BOM_GUST_PER REUNION_GUST REUNION_GUST_PER USA_SEAHGT USA_SEARAD_NE USA_SEARAD_SE USA_SEARAD_SW USA_SEARAD_NW STORM_SPEED STORM_DIR
1864102S07429 1864 6 SI MM NOT_NAMED 1864-04-10 18:00:00 NR -7.10000 69.0000 spur-merge 1898 1896 __________O___ -1 -7.10000 69.0000 7 5 125
1864102S07429 1864 6 SI MM NOT_NAMED 1864-04-10 21:00:00 NR -7.24540 69.2077 spur-merge 1903 1894 __________P___ -1 -7.24540 69.2077 7 5 126
1864102S07429 1864 6 SI MM NOT_NAMED 1864-04-11 00:00:00 NR -7.39260 69.4124 spur-merge 1900 1899 __________P___ -1 -7.39260 69.4124 7 5 127
1864102S07429 1864 6 SI MM NOT_NAMED 1864-04-11 03:00:00 NR -7.54350 69.6109 spur-merge 1906 1896 __________P___ -1 -7.54350 69.6109 7 5 129
1864102S07429 1864 6 SI MM NOT_NAMED 1864-04-11 06:00:00 NR -7.70000 69.8000 spur-merge 1904 1902 __________O___ -1 -7.70000 69.8000 7 5 131
1864102S07429 1864 6 SI MM NOT_NAMED 1864-04-11 09:00:00 NR -7.86214 69.9781 spur-merge 1902 1901 __________P___ -1 -7.86214 69.9781 7 5 133
1864102S07429 1864 6 SI MM NOT_NAMED 1864-04-11 12:00:00 NR -8.02243 70.1500 spur-merge 1909 1900 __________P___ -1 -8.02243 70.1500 7 5 132
1864102S07429 1864 6 SI MM NOT_NAMED 1864-04-11 15:00:00 NR -8.17151 70.3219 spur-merge 1900 1900 __________P___ -1 -8.17151 70.3219 7 4 129
1864102S07429 1864 6 SI MM NOT_NAMED 1864-04-11 18:00:00 NR -8.30000 70.5000 spur-merge 1908 1908 __________O___ -1 -8.30000 70.5000 7 4 120
1864102S07429 1864 6 SI MM NOT_NAMED 1864-04-11 21:00:00 NR -8.38027 70.6848 spur-merge 1916 1916 __________P___ -1 -8.38027 70.6848 7 4 111
1864102S07429 1864 6 SI MM NOT_NAMED 1864-04-12 00:00:00 NR -8.44243 70.8777 spur-merge 1921 1918 __________P___ -1 -8.44243 70.8777 7 4 108
1864102S07429 1864 6 SI MM NOT_NAMED 1864-04-12 03:00:00 NR -8.50838 71.0817 spur-merge 1918 1913 __________P___ -1 -8.50838 71.0817 7 4 111
1864102S07429 1864 6 SI MM NOT_NAMED 1864-04-12 06:00:00 NR -8.60000 71.3000 spur-merge 1916 1911 __________O___ -1 -8.60000 71.3000 7 5 118
1864102S07429 1864 6 SI MM NOT_NAMED 1864-04-12 09:00:00 NR -8.75445 71.5558 spur-merge 1918 1913 __________P___ -1 -8.75445 71.5558 7 6 123
1864102S07429 1864 6 SI MM NOT_NAMED 1864-04-12 12:00:00 NR -8.93512 71.8223 spur-merge 1917 1916 __________P___ -1 -8.93512 71.8223 7 6 126
1864102S07429 1864 6 SI MM NOT_NAMED 1864-04-12 15:00:00 NR -9.12321 72.0777 spur-merge 1921 1921 __________P___ -1 -9.12321 72.0777 7 6 128
1864102S07429 1864 6 SI MM NOT_NAMED 1864-04-12 18:00:00 NR -9.30000 72.3000 spur-merge 1930 1930 __________O___ -1 -9.30000 72.3000 7 5 131
1864102S07429 1864 6 SI MM NOT_NAMED 1864-04-12 21:00:00 NR -9.44736 72.4489 spur-merge 1935 1935 __________P___ -1 -9.44736 72.4489 7 4 137
1864102S07429 1864 6 SI MM NOT_NAMED 1864-04-13 00:00:00 NR -9.57981 72.5652 spur-merge 1945 1945 __________P___ -1 -9.57981 72.5652 7 3 139
1864102S07429 1864 6 SI MM NOT_NAMED 1864-04-13 03:00:00 NR -9.69737 72.6739 spur-merge 1950 1950 __________P___ -1 -9.69737 72.6739 7 3 134
1864102S07429 1864 6 SI MM NOT_NAMED 1864-04-13 06:00:00 NR -9.80000 72.8000 spur-merge 1956 1951 __________O___ -1 -9.80000 72.8000 7 4 122
1864102S07429 1864 6 SI MM NOT_NAMED 1864-04-13 09:00:00 NR -9.88941 72.9825 spur-merge 1956 1952 __________P___ -1 -9.88941 72.9825 7 4 114
1864102S07429 1864 6 SI MM NOT_NAMED 1864-04-13 12:00:00 NR -9.96505 73.1850 spur-merge 1958 1949 __________P___ -1 -9.96505 73.1850 7 4 110
1864102S07429 1864 6 SI MM NOT_NAMED 1864-04-13 15:00:00 NR -10.0332 73.3950 spur-merge 1949 1949 __________P___ -1 -10.0332 73.3950 7 4 108
1864102S07429 1864 6 SI MM NOT_NAMED 1864-04-13 18:00:00 NR -10.1000 73.6000 spur-merge 1950 1946 __________O___ -1 -10.1000 73.6000 7 4 109
1864102S07429 1864 6 SI MM NOT_NAMED 1864-04-13 21:00:00 NR -10.1668 73.7822 spur-merge 1953 1948 __________P___ -1 -10.1668 73.7822 7 4 111
1864102S07429 1864 6 SI MM NOT_NAMED 1864-04-14 00:00:00 NR -10.2349 73.9576 spur-merge 1944 1944 __________P___ -1 -10.2349 73.9576 7 4 113
1864102S07429 1864 6 SI MM NOT_NAMED 1864-04-14 03:00:00 NR -10.3106 74.1291 spur-merge 1951 1947 __________P___ -1 -10.3106 74.1291 7 4 116
1864102S07429 1864 6 SI MM NOT_NAMED 1864-04-14 06:00:00 NR -10.4000 74.3000 spur-merge 1954 1950 __________O___ -1 -10.4000 74.3000 7 4 121
1864102S07429 1864 6 SI MM NOT_NAMED 1864-04-14 09:00:00 NR -10.5187 74.4831 spur-merge 1957 1957 __________P___ -1 -10.5187 74.4831 7 4 125
1864102S07429 1864 6 SI MM NOT_NAMED 1864-04-14 12:00:00 NR -10.6500 74.6649 spur-merge 1971 1967 __________P___ -1 -10.6500 74.6649 7 4 127
1864102S07429 1864 6 SI MM NOT_NAMED 1864-04-14 15:00:00 NR -10.7813 74.8393 spur-merge 1978 1974 __________P___ -1 -10.7813 74.8393 7 4 127
1864102S07429 1864 6 SI MM NOT_NAMED 1864-04-14 18:00:00 NR -10.9000 75.0000 spur-merge 1982 1978 __________O___ -1 -10.9000 75.0000 7 3 127
1864102S07429 1864 6 SI MM NOT_NAMED 1864-04-14 21:00:00 NR -10.9852 75.1192 spur-merge 1989 1985 __________P___ -1 -10.9852 75.1192 7 3 125
1864102S07429 1864 6 SI MM NOT_NAMED 1864-04-15 00:00:00 NR -11.0573 75.2277 spur-merge 1996 1993 __________P___ -1 -11.0573 75.2277 7 3 122
1864102S07429 1864 6 SI MM NOT_NAMED 1864-04-15 03:00:00 NR -11.1258 75.3473 spur-merge 1993 1989 __________P___ -1 -11.1258 75.3473 7 3 118
1864102S07429 1864 6 SI MM NOT_NAMED 1864-04-15 06:00:00 NR -11.2000 75.5000 spur-merge 1997 1994 __________O___ -1 -11.2000 75.5000 7 4 114
1864102S07429 1864 6 SI MM NOT_NAMED 1864-04-15 09:00:00 NR -11.2847 75.7141 spur-merge 2002 1996 __________P___ -1 -11.2847 75.7141 7 5 111
1864102S07429 1864 6 SI MM NOT_NAMED 1864-04-15 12:00:00 NR -11.3776 75.9626 spur-merge 2004 2001 __________P___ -1 -11.3776 75.9626 7 5 111
1864102S07429 1864 6 SI MM NOT_NAMED 1864-04-15 15:00:00 NR -11.4816 76.2298 spur-merge 2009 2004 __________P___ -1 -11.4816 76.2298 7 6 113
1864102S07429 1864 6 SI MM NOT_NAMED 1864-04-15 18:00:00 NR -11.6000 76.5000 spur-merge 2012 2010 __________O___ -1 -11.6000 76.5000 7 6 117
1864102S07429 1864 6 SI MM NOT_NAMED 1864-04-15 21:00:00 NR -11.7437 76.7500 spur-merge 2018 2018 __________P___ -1 -11.7437 76.7500 7 6 122
1864102S07429 1864 6 SI MM NOT_NAMED 1864-04-16 00:00:00 NR -11.8999 76.9999 spur-merge 2033 2031 __________P___ -1 -11.8999 76.9999 7 6 123
1864102S07429 1864 6 SI MM NOT_NAMED 1864-04-16 03:00:00 NR -12.0562 77.2500 spur-merge 2051 2047 __________P___ -1 -12.0562 77.2500 7 6 121
1864102S07429 1864 6 SI MM NOT_NAMED 1864-04-16 06:00:00 NR -12.2000 77.5000 spur-merge 2056 2054 __________O___ -1 -12.2000 77.5000 7 6 117
1864102S07429 1864 6 SI MM NOT_NAMED 1864-04-16 09:00:00 NR -12.3144 77.7582 spur-merge 2062 2062 __________P___ -1 -12.3144 77.7582 7 5 113
1864102S07429 1864 6 SI MM NOT_NAMED 1864-04-16 12:00:00 NR -12.4150 78.0151 spur-merge 2070 2068 __________P___ -1 -12.4150 78.0151 7 5 111
1864102S07429 1864 6 SI MM NOT_NAMED 1864-04-16 15:00:00 NR -12.5081 78.2645 spur-merge 2077 2075 __________P___ -1 -12.5081 78.2645 7 5 111
1864102S07429 1864 6 SI MM NOT_NAMED 1864-04-16 18:00:00 NR -12.6000 78.5000 spur-merge 2085 2084 __________O___ -1 -12.6000 78.5000 7 5 113
1864102S07429 1864 6 SI MM NOT_NAMED 1864-04-16 21:00:00 NR -12.6957 78.7174 spur-merge 2094 2093 __________P___ -1 -12.6957 78.7174 7 5 116
1864102S07429 1864 6 SI MM NOT_NAMED 1864-04-17 00:00:00 NR -12.7951 78.9199 spur-merge 2103 2102 __________P___ -1 -12.7951 78.9199 7 4 118
1864102S07429 1864 6 SI MM NOT_NAMED 1864-04-17 03:00:00 NR -12.8969 79.1124 spur-merge 2112 2112 __________P___ -1 -12.8969 79.1124 7 4 119
1864102S07429 1864 6 SI MM NOT_NAMED 1864-04-17 06:00:00 NR -13.0000 79.3000 spur-merge 2122 __________O___ -1 -13.0000 79.3000 7 4 119

About IBTrACS Database

This database is a web-friendly format of International Best Track Archive for Climate Stewardship (IBTrACS), a global best track data archive curated by NOAA dating back to 1842.

Updated: 2021-10-08